APL Denmark — A8JX9 — position and weather

sailwx.info

Track history (hours):
 
Tides and Currents Weather Stations Pressure Air Temp Water Temp Dewpoint Dewpoint Depression Visibility Wind Speed Wind Dir Waves Ship Positions

APL Denmark

Last reported at 2018-Apr-22 20:32 UTC. Time now 2018-Apr-26 09:41 UTC.
Position N 18°03' E 072°32'.

Length 277 m; beam 40 m; draft 14 m.

Type: Ship (hazmat cat D). MMSI: 636018240.

Date/timePositionNaut miles runAvg speedWind from/ knotsBaromVisibWave heightAir tempDewpointWater temp
2018-Apr-22 20:32N 18°03' E 072°32'111.7
2018-Apr-22 20:29N 18°04' E 072°32'611.7
2018-Apr-22 20:00N 18°09' E 072°32'611.9
2018-Apr-22 19:28N 18°15' E 072°31'612.0
2018-Apr-22 19:00N 18°21' E 072°30'612.1
2018-Apr-22 18:30N 18°27' E 072°30'612.1
2018-Apr-22 18:00N 18°33' E 072°30'811.8
2018-Apr-22 17:19N 18°41' E 072°30'412.4
2018-Apr-22 17:00N 18°45' E 072°31'912.2
2018-Apr-22 16:17N 18°54' E 072°30'412.3
2018-Apr-22 16:00N 18°57' E 072°29'612.1
2018-Apr-22 15:30N 19°03' E 072°27'612.0
2018-Apr-22 15:01N 19°09' E 072°27'612.1
2018-Apr-22 14:30N 19°15' E 072°26'611.6
2018-Apr-22 14:00N 19°21' E 072°25'1810.7
2018-Apr-22 12:19N 19°39' E 072°26'1210.2
2018-Apr-22 11:10N 19°47' E 072°18'311.7
2018-Apr-22 10:53N 19°48' E 072°14'511.8
2018-Apr-22 10:30N 19°50' E 072°10'1911.7
2018-Apr-22 08:54N 19°57' E 071°51'511.7
2018-Apr-22 08:30N 20°00' E 071°48'611.6
2018-Apr-22 07:58N 20°04' E 071°43'511.5
2018-Apr-22 07:30N 20°08' E 071°39'1411.7
2018-Apr-22 06:17N 20°22' E 071°39'311.7
2018-Apr-22 06:00N 20°26' E 071°38'712.5
2018-Apr-22 05:27N 20°32' E 071°37'612.9
2018-Apr-22 04:59N 20°38' E 071°37'612.6
2018-Apr-22 04:30N 20°44' E 071°37'610.9
2018-Apr-22 03:58N 20°49' E 071°33'610.0
2018-Apr-22 03:25N 20°54' E 071°30'1 3.2
2018-Apr-22 02:58N 20°55' E 071°31'0 0.1
2018-Apr-22 00:25N 20°55' E 071°31'0 0.0
2018-Apr-21 23:55N 20°55' E 071°31'0 0.0
2018-Apr-21 22:31N 20°55' E 071°31'0 0.0
2018-Apr-21 22:19N 20°55' E 071°31'0 0.0
2018-Apr-21 21:01N 20°55' E 071°31'0 0.0
2018-Apr-21 20:49N 20°55' E 071°31'0 0.0
2018-Apr-21 20:19N 20°55' E 071°31'0 0.0
2018-Apr-21 19:55N 20°55' E 071°31'0 0.0
2018-Apr-21 19:19N 20°55' E 071°31'0 0.0
2018-Apr-21 18:55N 20°55' E 071°31'0 0.0
2018-Apr-21 18:25N 20°55' E 071°31'0 0.0
2018-Apr-21 17:55N 20°55' E 071°31'0 0.0
2018-Apr-21 17:25N 20°55' E 071°31'0 0.0
2018-Apr-21 16:55N 20°55' E 071°31'0 0.0
2018-Apr-21 16:07N 20°55' E 071°31'0 0.0
2018-Apr-21 15:37N 20°55' E 071°31'0 0.0
2018-Apr-21 15:25N 20°55' E 071°31'0 0.0
2018-Apr-21 14:55N 20°55' E 071°31'0 0.0
2018-Apr-21 14:21N 20°55' E 071°31'1 2.0
2018-Apr-21 14:00N 20°55' E 071°30'3 6.0
2018-Apr-21 13:30N 20°52' E 071°31'3 3.8
2018-Apr-21 12:48N 20°49' E 071°32'0 0.1
2018-Apr-21 12:18N 20°49' E 071°32'0 0.1
2018-Apr-21 12:00N 20°49' E 071°32'0 0.0
2018-Apr-21 10:42N 20°49' E 071°32'0 0.0
2018-Apr-21 10:24N 20°49' E 071°32'0 0.1
2018-Apr-21 10:00N 20°49' E 071°32'0 0.1
2018-Apr-21 09:30N 20°49' E 071°32'0 0.0
2018-Apr-21 09:00N 20°49' E 071°32'0 0.3
2018-Apr-21 08:12N 20°49' E 071°32'0 0.4
2018-Apr-21 08:00N 20°49' E 071°32'0 0.2
2018-Apr-21 07:30N 20°49' E 071°32'0 0.1
2018-Apr-21 06:59N 20°49' E 071°32'3 7.3
2018-Apr-21 06:30N 20°46' E 071°32'510.2
2018-Apr-21 06:00N 20°41' E 071°34'510.6
2018-Apr-21 05:30N 20°36' E 071°36'510.1
2018-Apr-21 05:01N 20°31' E 071°37'5 9.8
2018-Apr-21 04:31N 20°26' E 071°36'5 9.9
2018-Apr-21 04:00N 20°21' E 071°36'510.1
2018-Apr-21 03:31N 20°16' E 071°36'510.5
2018-Apr-21 03:00N 20°11' E 071°38'1111.1
2018-Apr-21 02:03N 20°05' E 071°47'411.9
2018-Apr-21 01:43N 20°04' E 071°51'311.8
2018-Apr-21 01:30N 20°04' E 071°54'611.7
2018-Apr-21 00:59N 20°02' E 071°60'511.5
2018-Apr-21 00:30N 20°00' E 072°05'611.5
2018-Apr-21 00:00N 19°58' E 072°11'2811.2
2018-Apr-20 21:28N 19°34' E 072°27'1013.0
2018-Apr-20 20:40N 19°24' E 072°27'412.5
2018-Apr-20 20:21N 19°20' E 072°26'512.1
2018-Apr-20 19:58N 19°15' E 072°26'24 0.6
2018-Apr-19 05:15N 18°52' E 072°34'6 7.1
2018-Apr-19 04:24N 18°46' E 072°35'410.6
2018-Apr-19 03:59N 18°42' E 072°34'1215.3
2018-Apr-19 03:10N 18°30' E 072°31'315.0
2018-Apr-19 03:00N 18°27' E 072°32'1315.4
2018-Apr-19 02:08N 18°14' E 072°33'215.4
2018-Apr-19 02:00N 18°12' E 072°34'815.5
2018-Apr-19 01:30N 18°04' E 072°35'815.2
2018-Apr-19 01:00N 17°57' E 072°36'815.2
2018-Apr-19 00:30N 17°50' E 072°38'815.1
2018-Apr-19 00:00N 17°42' E 072°40'714.9
2018-Apr-18 23:30N 17°35' E 072°41'1515.0
2018-Apr-18 22:29N 17°20' E 072°43'814.9
2018-Apr-18 21:56N 17°12' E 072°45'615.1
2018-Apr-18 21:30N 17°05' E 072°47'1714.9
2018-Apr-18 20:23N 16°49' E 072°51'614.9
2018-Apr-18 20:00N 16°44' E 072°52'815.0
2018-Apr-18 19:28N 16°36' E 072°53'  
Track history (hours):
 
Tides and Currents Weather Stations Pressure Air Temp Water Temp Dewpoint Dewpoint Depression Visibility Wind Speed Wind Dir Waves Ship Positions

APL Denmark

Last reported at 2018-Apr-22 20:32 UTC. Time now 2018-Apr-26 09:41 UTC.
Position N 18°03' E 072°32'.

Length 277 m; beam 40 m; draft 14 m.

Type: Ship (hazmat cat D). MMSI: 636018240.

Date/timePositionNaut miles runAvg speedWind from/ knotsBaromVisibWave heightAir tempDewpointWater temp
2018-Apr-22 20:32N 18°03' E 072°32'111.7
2018-Apr-22 20:29N 18°04' E 072°32'611.7
2018-Apr-22 20:00N 18°09' E 072°32'611.9
2018-Apr-22 19:28N 18°15' E 072°31'612.0
2018-Apr-22 19:00N 18°21' E 072°30'612.1
2018-Apr-22 18:30N 18°27' E 072°30'612.1
2018-Apr-22 18:00N 18°33' E 072°30'811.8
2018-Apr-22 17:19N 18°41' E 072°30'412.4
2018-Apr-22 17:00N 18°45' E 072°31'912.2
2018-Apr-22 16:17N 18°54' E 072°30'412.3
2018-Apr-22 16:00N 18°57' E 072°29'612.1
2018-Apr-22 15:30N 19°03' E 072°27'612.0
2018-Apr-22 15:01N 19°09' E 072°27'612.1
2018-Apr-22 14:30N 19°15' E 072°26'611.6
2018-Apr-22 14:00N 19°21' E 072°25'1810.7
2018-Apr-22 12:19N 19°39' E 072°26'1210.2
2018-Apr-22 11:10N 19°47' E 072°18'311.7
2018-Apr-22 10:53N 19°48' E 072°14'511.8
2018-Apr-22 10:30N 19°50' E 072°10'1911.7
2018-Apr-22 08:54N 19°57' E 071°51'511.7
2018-Apr-22 08:30N 20°00' E 071°48'611.6
2018-Apr-22 07:58N 20°04' E 071°43'511.5
2018-Apr-22 07:30N 20°08' E 071°39'1411.7
2018-Apr-22 06:17N 20°22' E 071°39'311.7
2018-Apr-22 06:00N 20°26' E 071°38'712.5
2018-Apr-22 05:27N 20°32' E 071°37'612.9
2018-Apr-22 04:59N 20°38' E 071°37'612.6
2018-Apr-22 04:30N 20°44' E 071°37'610.9
2018-Apr-22 03:58N 20°49' E 071°33'610.0
2018-Apr-22 03:25N 20°54' E 071°30'1 3.2
2018-Apr-22 02:58N 20°55' E 071°31'0 0.1
2018-Apr-22 00:25N 20°55' E 071°31'0 0.0
2018-Apr-21 23:55N 20°55' E 071°31'0 0.0
2018-Apr-21 22:31N 20°55' E 071°31'0 0.0
2018-Apr-21 22:19N 20°55' E 071°31'0 0.0
2018-Apr-21 21:01N 20°55' E 071°31'0 0.0
2018-Apr-21 20:49N 20°55' E 071°31'0 0.0
2018-Apr-21 20:19N 20°55' E 071°31'0 0.0
2018-Apr-21 19:55N 20°55' E 071°31'0 0.0
2018-Apr-21 19:19N 20°55' E 071°31'0 0.0
2018-Apr-21 18:55N 20°55' E 071°31'0 0.0
2018-Apr-21 18:25N 20°55' E 071°31'0 0.0
2018-Apr-21 17:55N 20°55' E 071°31'0 0.0
2018-Apr-21 17:25N 20°55' E 071°31'0 0.0
2018-Apr-21 16:55N 20°55' E 071°31'0 0.0
2018-Apr-21 16:07N 20°55' E 071°31'0 0.0
2018-Apr-21 15:37N 20°55' E 071°31'0 0.0
2018-Apr-21 15:25N 20°55' E 071°31'0 0.0
2018-Apr-21 14:55N 20°55' E 071°31'0 0.0
2018-Apr-21 14:21N 20°55' E 071°31'1 2.0
2018-Apr-21 14:00N 20°55' E 071°30'3 6.0
2018-Apr-21 13:30N 20°52' E 071°31'3 3.8
2018-Apr-21 12:48N 20°49' E 071°32'0 0.1
2018-Apr-21 12:18N 20°49' E 071°32'0 0.1
2018-Apr-21 12:00N 20°49' E 071°32'0 0.0
2018-Apr-21 10:42N 20°49' E 071°32'0 0.0
2018-Apr-21 10:24N 20°49' E 071°32'0 0.1
2018-Apr-21 10:00N 20°49' E 071°32'0 0.1
2018-Apr-21 09:30N 20°49' E 071°32'0 0.0
2018-Apr-21 09:00N 20°49' E 071°32'0 0.3
2018-Apr-21 08:12N 20°49' E 071°32'0 0.4
2018-Apr-21 08:00N 20°49' E 071°32'0 0.2
2018-Apr-21 07:30N 20°49' E 071°32'0 0.1
2018-Apr-21 06:59N 20°49' E 071°32'3 7.3
2018-Apr-21 06:30N 20°46' E 071°32'510.2
2018-Apr-21 06:00N 20°41' E 071°34'510.6
2018-Apr-21 05:30N 20°36' E 071°36'510.1
2018-Apr-21 05:01N 20°31' E 071°37'5 9.8
2018-Apr-21 04:31N 20°26' E 071°36'5 9.9
2018-Apr-21 04:00N 20°21' E 071°36'510.1
2018-Apr-21 03:31N 20°16' E 071°36'510.5
2018-Apr-21 03:00N 20°11' E 071°38'1111.1
2018-Apr-21 02:03N 20°05' E 071°47'411.9
2018-Apr-21 01:43N 20°04' E 071°51'311.8
2018-Apr-21 01:30N 20°04' E 071°54'611.7
2018-Apr-21 00:59N 20°02' E 071°60'511.5
2018-Apr-21 00:30N 20°00' E 072°05'611.5
2018-Apr-21 00:00N 19°58' E 072°11'2811.2
2018-Apr-20 21:28N 19°34' E 072°27'1013.0
2018-Apr-20 20:40N 19°24' E 072°27'412.5
2018-Apr-20 20:21N 19°20' E 072°26'512.1
2018-Apr-20 19:58N 19°15' E 072°26'24 0.6
2018-Apr-19 05:15N 18°52' E 072°34'6 7.1
2018-Apr-19 04:24N 18°46' E 072°35'410.6
2018-Apr-19 03:59N 18°42' E 072°34'1215.3
2018-Apr-19 03:10N 18°30' E 072°31'315.0
2018-Apr-19 03:00N 18°27' E 072°32'1315.4
2018-Apr-19 02:08N 18°14' E 072°33'215.4
2018-Apr-19 02:00N 18°12' E 072°34'815.5
2018-Apr-19 01:30N 18°04' E 072°35'815.2
2018-Apr-19 01:00N 17°57' E 072°36'815.2
2018-Apr-19 00:30N 17°50' E 072°38'815.1
2018-Apr-19 00:00N 17°42' E 072°40'714.9
2018-Apr-18 23:30N 17°35' E 072°41'1515.0
2018-Apr-18 22:29N 17°20' E 072°43'814.9
2018-Apr-18 21:56N 17°12' E 072°45'615.1
2018-Apr-18 21:30N 17°05' E 072°47'1714.9
2018-Apr-18 20:23N 16°49' E 072°51'614.9
2018-Apr-18 20:00N 16°44' E 072°52'815.0
2018-Apr-18 19:28N 16°36' E 072°53'  

Dump ship's entire track history